Time;durP1;ratioP1;P1;durP2;ratioP2;P2;SDS_P1;SDS_P2;PMS_P1;PMS_P2;Temp;Humidity;BMP_temperature;BMP_pressure;BME280_temperature;BME280_humidity;BME280_pressure;Samples;Min_cycle;Max_cycle;Signal;HPM_P1;HPM_P2
2022/08/11 00:02:17;;;;;;;58.60;3.20;;;;;;;;;;5071950;28;20474;-66
2022/08/11 00:04:45;;;;;;;59.33;3.80;;;;;;;;;;5071667;28;20455;-66
2022/08/11 00:07:13;;;;;;;63.07;3.80;;;;;;;;;;5071772;28;20457;-66
2022/08/11 00:09:40;;;;;;;58.90;3.90;;;;;;;;;;5071459;28;20820;-66
2022/08/11 00:12:13;;;;;;;59.20;3.63;;;;;;;;;;5071464;28;20471;-66
2022/08/11 00:14:41;;;;;;;60.17;4.10;;;;;;;;;;5071892;28;20500;-66
2022/08/11 00:17:10;;;;;;;59.20;3.40;;;;;;;;;;5071799;28;20452;-66
2022/08/11 00:19:38;;;;;;;59.87;3.80;;;;;;;;;;5071309;28;20936;-66
2022/08/11 00:22:07;;;;;;;59.63;4.07;;;;;;;;;;5071417;28;20567;-66
2022/08/11 00:24:35;;;;;;;58.80;3.50;;;;;;;;;;5071524;28;20443;-66
2022/08/11 00:27:02;;;;;;;62.37;4.10;;;;;;;;;;5071699;28;20454;-66
2022/08/11 00:29:30;;;;;;;59.37;3.43;;;;;;;;;;5071190;28;20447;-66
2022/08/11 00:32:00;;;;;;;58.90;3.00;;;;;;;;;;5071429;28;20471;-66
2022/08/11 00:34:28;;;;;;;58.83;3.13;;;;;;;;;;5071368;28;20491;-66
2022/08/11 00:36:58;;;;;;;58.77;3.60;;;;;;;;;;5071155;28;20490;-66
2022/08/11 00:39:28;;;;;;;59.73;4.00;;;;;;;;;;5071332;28;20443;-66
2022/08/11 00:42:07;;;;;;;59.43;3.87;;;;;;;;;;5071516;28;20477;-66
2022/08/11 00:44:44;;;;;;;59.50;3.20;;;;;;;;;;5071526;28;20450;-66
2022/08/11 00:47:19;;;;;;;59.70;3.10;;;;;;;;;;5071424;28;20443;-66
2022/08/11 00:49:52;;;;;;;60.47;3.87;;;;;;;;;;5070966;28;20537;-66
2022/08/11 00:52:25;;;;;;;68.20;4.53;;;;;;;;;;5073196;28;20481;-66
2022/08/11 00:55:24;;;;;;;59.50;4.23;;;;;;;;;;5075236;28;20451;-66
2022/08/11 00:58:05;;;;;;;59.13;3.87;;;;;;;;;;5075502;28;20534;-66
2022/08/11 01:00:33;;;;;;;60.30;4.93;;;;;;;;;;5074868;28;20814;-66
2022/08/11 01:03:12;;;;;;;59.17;4.30;;;;;;;;;;5075070;28;20827;-66
2022/08/11 01:05:46;;;;;;;61.43;4.40;;;;;;;;;;5074900;28;20482;-66
2022/08/11 01:08:34;;;;;;;59.50;3.80;;;;;;;;;;5074714;28;20447;-66
2022/08/11 01:11:19;;;;;;;63.93;4.40;;;;;;;;;;5074913;28;20466;-66
2022/08/11 01:14:08;;;;;;;59.57;3.70;;;;;;;;;;5074837;28;20594;-66
2022/08/11 01:17:09;;;;;;;59.47;3.63;;;;;;;;;;5074621;28;20454;-66
2022/08/11 01:19:56;;;;;;;59.33;3.97;;;;;;;;;;5012200;28;20540;-66
2022/08/11 01:22:43;;;;;;;59.50;3.80;;;;;;;;;;5007931;28;20488;-66
2022/08/11 01:25:30;;;;;;;60.00;4.00;;;;;;;;;;5012447;28;20480;-66
2022/08/11 01:28:18;;;;;;;58.97;3.73;;;;;;;;;;5012548;28;20673;-66
2022/08/11 01:31:04;;;;;;;59.80;3.80;;;;;;;;;;5012061;28;20553;-66
2022/08/11 01:33:50;;;;;;;59.67;3.50;;;;;;;;;;5012339;28;20481;-66
2022/08/11 01:36:42;;;;;;;59.40;4.10;;;;;;;;;;5012364;28;20458;-66
2022/08/11 01:39:30;;;;;;;60.57;4.33;;;;;;;;;;5011968;28;20456;-67
2022/08/11 01:45:17;;;;;;;61.30;4.77;;;;;;;;;;4991981;28;20430;-66
2022/08/11 01:47:50;;;;;;;59.50;3.87;;;;;;;;;;5012028;28;20466;-66
2022/08/11 01:50:21;;;;;;;59.87;4.73;;;;;;;;;;5036559;28;20447;-67
2022/08/11 01:52:59;;;;;;;60.27;4.53;;;;;;;;;;5073999;28;20464;-66
2022/08/11 01:55:28;;;;;;;60.23;4.60;;;;;;;;;;5074025;28;20867;-66
2022/08/11 01:58:02;;;;;;;60.33;5.03;;;;;;;;;;5073751;28;20447;-66
2022/08/11 02:00:31;;;;;;;63.00;3.97;;;;;;;;;;5073773;28;20447;-66
2022/08/11 02:03:03;;;;;;;59.90;4.50;;;;;;;;;;5073358;28;20931;-66
2022/08/11 02:05:37;;;;;;;59.70;4.53;;;;;;;;;;5073831;28;20452;-66
2022/08/11 02:08:11;;;;;;;59.50;4.50;;;;;;;;;;5073642;28;20457;-66
2022/08/11 02:13:34;;;;;;;59.37;3.93;;;;;;;;;;5073716;28;20517;-66
2022/08/11 02:16:06;;;;;;;60.30;4.50;;;;;;;;;;5073702;28;20822;-66
2022/08/11 02:24:07;;;;;;;59.60;4.10;;;;;;;;;;5073256;28;20430;-66
2022/08/11 02:26:36;;;;;;;59.10;3.83;;;;;;;;;;5073414;28;20450;-66
2022/08/11 02:29:09;;;;;;;59.20;4.03;;;;;;;;;;5072912;28;20446;-66
2022/08/11 02:34:32;;;;;;;59.20;3.70;;;;;;;;;;5050115;28;21001;-66
2022/08/11 02:37:03;;;;;;;59.70;4.03;;;;;;;;;;5073267;28;20462;-66
2022/08/11 02:39:39;;;;;;;61.03;4.30;;;;;;;;;;5073260;28;20439;-66
2022/08/11 02:42:23;;;;;;;59.50;3.60;;;;;;;;;;5073195;28;20884;-66
2022/08/11 02:44:58;;;;;;;59.53;4.20;;;;;;;;;;5073245;28;20886;-66
2022/08/11 02:47:32;;;;;;;60.43;4.43;;;;;;;;;;5072986;28;20819;-66
2022/08/11 02:50:02;;;;;;;59.87;4.10;;;;;;;;;;5072587;28;20537;-66
2022/08/11 02:52:34;;;;;;;59.30;3.70;;;;;;;;;;5072672;28;20478;-66
2022/08/11 02:55:16;;;;;;;60.40;4.20;;;;;;;;;;5072892;28;20483;-66
2022/08/11 02:57:45;;;;;;;59.67;4.27;;;;;;;;;;5072834;28;20447;-66
2022/08/11 03:00:13;;;;;;;60.50;4.30;;;;;;;;;;5072230;28;20451;-66
2022/08/11 03:02:58;;;;;;;59.60;3.93;;;;;;;;;;5072706;28;20478;-66
2022/08/11 03:05:31;;;;;;;61.53;4.20;;;;;;;;;;5062634;28;20454;-67
2022/08/11 03:08:21;;;;;;;68.97;3.97;;;;;;;;;;5072479;28;20951;-67
2022/08/11 03:19:08;;;;;;;59.67;3.63;;;;;;;;;;5072058;28;20415;-67
2022/08/11 03:21:38;;;;;;;60.33;4.40;;;;;;;;;;5072570;28;20839;-67
2022/08/11 03:24:09;;;;;;;59.17;4.13;;;;;;;;;;5072404;28;20493;-67
2022/08/11 03:26:44;;;;;;;62.03;4.17;;;;;;;;;;5072359;28;20471;-67
2022/08/11 03:29:16;;;;;;;59.43;3.83;;;;;;;;;;5071973;28;20467;-67
2022/08/11 03:31:46;;;;;;;60.67;4.47;;;;;;;;;;5072061;28;20490;-67
2022/08/11 03:34:15;;;;;;;60.57;3.97;;;;;;;;;;5072511;28;20483;-67
2022/08/11 03:37:00;;;;;;;59.60;4.30;;;;;;;;;;5072200;28;20873;-67
2022/08/11 03:39:33;;;;;;;59.87;3.60;;;;;;;;;;5071761;28;20469;-67
2022/08/11 03:42:09;;;;;;;60.80;3.90;;;;;;;;;;5071992;28;20509;-67
2022/08/11 03:44:43;;;;;;;59.97;4.13;;;;;;;;;;5072169;28;20453;-67
2022/08/11 03:47:28;;;;;;;60.80;4.77;;;;;;;;;;5071911;28;20442;-67
2022/08/11 03:50:01;;;;;;;60.00;4.00;;;;;;;;;;5071592;28;20451;-67
2022/08/11 03:52:35;;;;;;;65.17;5.47;;;;;;;;;;5071756;28;20899;-67
2022/08/11 03:55:09;;;;;;;60.47;4.70;;;;;;;;;;5071800;28;20481;-67
2022/08/11 03:57:49;;;;;;;59.80;4.10;;;;;;;;;;5071983;28;20458;-67
2022/08/11 04:00:21;;;;;;;59.57;4.10;;;;;;;;;;5071518;28;20977;-67
2022/08/11 04:03:08;;;;;;;60.37;4.30;;;;;;;;;;5071739;28;20479;-67
2022/08/11 04:05:53;;;;;;;59.40;4.33;;;;;;;;;;5071856;28;20458;-67
2022/08/11 04:08:38;;;;;;;60.13;4.10;;;;;;;;;;5071844;28;20451;-67
2022/08/11 04:11:23;;;;;;;59.53;4.27;;;;;;;;;;5041079;28;20975;-67
2022/08/11 04:16:55;;;;;;;59.50;4.07;;;;;;;;;;5066788;28;20427;-67
2022/08/11 04:19:36;;;;;;;59.73;3.90;;;;;;;;;;5071269;28;20451;-67
2022/08/11 04:22:17;;;;;;;59.00;3.50;;;;;;;;;;5071507;28;20469;-67
2022/08/11 04:24:59;;;;;;;59.50;4.17;;;;;;;;;;5071766;28;20454;-67
2022/08/11 04:27:41;;;;;;;59.30;3.63;;;;;;;;;;5073618;28;20455;-67
2022/08/11 04:30:12;;;;;;;59.97;4.10;;;;;;;;;;5075287;28;20447;-67
2022/08/11 04:33:03;;;;;;;60.00;4.63;;;;;;;;;;5075457;28;20463;-67
2022/08/11 04:35:39;;;;;;;60.20;4.30;;;;;;;;;;5019292;28;20494;-67
2022/08/11 04:38:15;;;;;;;60.10;5.00;;;;;;;;;;5075240;28;20537;-67
2022/08/11 04:40:55;;;;;;;60.70;4.07;;;;;;;;;;5075067;28;20469;-67
2022/08/11 04:43:40;;;;;;;61.70;5.17;;;;;;;;;;5075361;28;20447;-67
2022/08/11 04:46:17;;;;;;;60.67;4.87;;;;;;;;;;5075276;28;20522;-67
2022/08/11 05:03:43;;;;;;;60.00;5.20;;;;;;;;;;5064135;28;20435;-67
2022/08/11 05:06:24;;;;;;;61.50;5.00;;;;;;;;;;5074927;28;20445;-67
2022/08/11 05:09:02;;;;;;;60.57;4.30;;;;;;;;;;5074579;28;20450;-67
2022/08/11 05:11:47;;;;;;;59.50;4.23;;;;;;;;;;5074736;28;20462;-67
2022/08/11 05:36:49;;;;;;;59.50;4.27;;;;;;;;;;5073879;28;20473;-67
2022/08/11 05:58:43;;;;;;;59.70;4.00;;;;;;;;;;5073666;28;20465;-67
2022/08/11 06:01:11;;;;;;;62.00;4.57;;;;;;;;;;5073877;28;20540;-67
2022/08/11 06:06:19;;;;;;;59.20;3.67;;;;;;;;;;5073531;28;20457;-67
2022/08/11 06:08:47;;;;;;;59.00;3.47;;;;;;;;;;5073474;28;21064;-67
2022/08/11 06:11:14;;;;;;;59.90;3.87;;;;;;;;;;5073727;28;20463;-67
2022/08/11 06:13:45;;;;;;;59.27;3.33;;;;;;;;;;5073561;28;20449;-67
2022/08/11 06:16:14;;;;;;;59.30;3.60;;;;;;;;;;5073540;28;20538;-67
2022/08/11 06:18:45;;;;;;;59.50;3.43;;;;;;;;;;5073452;28;20443;-67
2022/08/11 06:21:14;;;;;;;59.87;3.63;;;;;;;;;;5073491;28;20473;-67
2022/08/11 06:23:43;;;;;;;59.97;3.97;;;;;;;;;;5073529;28;20490;-67
2022/08/11 06:26:10;;;;;;;59.00;3.73;;;;;;;;;;5073356;28;20454;-67
2022/08/11 06:28:41;;;;;;;59.47;3.70;;;;;;;;;;5072975;28;20958;-65
2022/08/11 06:31:13;;;;;;;60.30;4.40;;;;;;;;;;5073451;28;20470;-65
2022/08/11 06:33:48;;;;;;;59.37;3.80;;;;;;;;;;5073389;28;20538;-65
2022/08/11 06:36:18;;;;;;;58.70;3.67;;;;;;;;;;5073166;28;20453;-66
2022/08/11 06:38:53;;;;;;;61.00;3.93;;;;;;;;;;5072851;28;20451;-66
2022/08/11 06:41:31;;;;;;;69.43;3.97;;;;;;;;;;5072962;28;20467;-66
2022/08/11 06:44:04;;;;;;;60.37;4.47;;;;;;;;;;5073163;28;20448;-66
2022/08/11 06:46:35;;;;;;;59.17;3.30;;;;;;;;;;5073169;28;20455;-66
2022/08/11 06:49:03;;;;;;;60.10;3.80;;;;;;;;;;5072708;28;20897;-66
2022/08/11 06:51:30;;;;;;;57.90;3.43;;;;;;;;;;5072740;28;20558;-67
2022/08/11 06:54:00;;;;;;;59.00;3.50;;;;;;;;;;5073012;28;20468;-67
2022/08/11 07:02:03;;;;;;;60.13;3.80;;;;;;;;;;5072660;28;20806;-67
2022/08/11 07:04:33;;;;;;;58.60;3.27;;;;;;;;;;5072879;28;20446;-67
2022/08/11 07:15:46;;;;;;;58.50;3.33;;;;;;;;;;5072409;28;20512;-67
2022/08/11 07:29:37;;;;;;;60.77;4.30;;;;;;;;;;5071865;28;20425;-66
2022/08/11 07:32:10;;;;;;;58.87;3.30;;;;;;;;;;5072119;28;21031;-66
2022/08/11 07:34:41;;;;;;;64.47;3.83;;;;;;;;;;5072554;28;20484;-67
2022/08/11 07:37:11;;;;;;;60.07;3.13;;;;;;;;;;5072229;28;20541;-67
2022/08/11 07:39:39;;;;;;;59.13;3.83;;;;;;;;;;5071754;28;20450;-67
2022/08/11 07:42:08;;;;;;;59.00;3.13;;;;;;;;;;5072115;28;20472;-67
2022/08/11 07:48:10;;;;;;;59.57;3.10;;;;;;;;;;5072398;28;20457;-67
2022/08/11 07:52:56;;;;;;;58.60;3.10;;;;;;;;;;5071852;28;20523;-67
2022/08/11 07:55:25;;;;;;;61.00;3.53;;;;;;;;;;5071791;28;20482;-67
2022/08/11 08:19:54;;;;;;;59.77;3.60;;;;;;;;;;5071399;28;20465;-67
2022/08/11 08:22:23;;;;;;;58.70;3.47;;;;;;;;;;5071651;28;20471;-67
2022/08/11 08:24:50;;;;;;;58.80;3.03;;;;;;;;;;5071606;28;20443;-67
2022/08/11 08:27:18;;;;;;;58.90;3.50;;;;;;;;;;5071491;28;20455;-67
2022/08/11 08:32:32;;;;;;;58.70;3.77;;;;;;;;;;5071553;28;20438;-67
2022/08/11 08:34:59;;;;;;;58.77;3.20;;;;;;;;;;5071646;28;20505;-67
2022/08/11 08:37:28;;;;;;;59.40;3.20;;;;;;;;;;5071494;28;20817;-67
2022/08/11 08:39:57;;;;;;;58.87;3.20;;;;;;;;;;5070984;28;20458;-67
2022/08/11 08:42:25;;;;;;;60.00;3.47;;;;;;;;;;5071346;28;20464;-67
2022/08/11 08:44:55;;;;;;;59.77;3.73;;;;;;;;;;5071322;28;20443;-68
2022/08/11 08:47:25;;;;;;;58.80;3.10;;;;;;;;;;5071520;28;20451;-67
2022/08/11 08:49:56;;;;;;;58.70;3.50;;;;;;;;;;5071394;28;20442;-67
2022/08/11 08:52:24;;;;;;;58.60;3.20;;;;;;;;;;5071154;28;20491;-67
2022/08/11 08:54:55;;;;;;;58.40;2.70;;;;;;;;;;5071429;28;20536;-67
2022/08/11 08:57:23;;;;;;;58.37;2.80;;;;;;;;;;5071749;28;20451;-67
2022/08/11 08:59:50;;;;;;;59.03;3.47;;;;;;;;;;5071082;28;20454;-67
2022/08/11 09:02:18;;;;;;;58.37;2.93;;;;;;;;;;5071156;28;21019;-67
2022/08/11 09:04:46;;;;;;;59.13;3.00;;;;;;;;;;5071114;28;20443;-67
2022/08/11 09:07:15;;;;;;;58.47;3.07;;;;;;;;;;5071102;28;20455;-67
2022/08/11 09:09:43;;;;;;;58.90;3.03;;;;;;;;;;5070785;28;20451;-67
2022/08/11 09:12:12;;;;;;;58.13;2.80;;;;;;;;;;5071475;28;20471;-67
2022/08/11 09:17:26;;;;;;;58.30;3.03;;;;;;;;;;5074647;28;20499;-67
2022/08/11 09:19:59;;;;;;;58.40;2.70;;;;;;;;;;5074299;28;20504;-67
2022/08/11 09:27:58;;;;;;;58.77;3.20;;;;;;;;;;5074410;28;20434;-67
2022/08/11 09:30:26;;;;;;;58.50;2.87;;;;;;;;;;5074157;28;20939;-67
2022/08/11 09:32:56;;;;;;;58.37;2.90;;;;;;;;;;5074608;28;20450;-67
2022/08/11 09:35:24;;;;;;;58.63;3.00;;;;;;;;;;5074413;28;20522;-67
2022/08/11 09:40:37;;;;;;;58.10;2.50;;;;;;;;;;5074061;28;20828;-67
2022/08/11 09:45:52;;;;;;;57.90;2.57;;;;;;;;;;5074311;28;20608;-67
2022/08/11 09:48:19;;;;;;;58.03;2.83;;;;;;;;;;5074111;28;20451;-67
2022/08/11 09:50:48;;;;;;;58.07;2.50;;;;;;;;;;5073682;28;20477;-67
2022/08/11 09:53:16;;;;;;;58.03;2.53;;;;;;;;;;5073899;28;20455;-67
2022/08/11 09:55:44;;;;;;;58.37;2.57;;;;;;;;;;5074018;28;20487;-67
2022/08/11 09:58:12;;;;;;;58.17;2.80;;;;;;;;;;5073868;28;20452;-67
2022/08/11 10:00:40;;;;;;;57.77;2.60;;;;;;;;;;5073323;28;20488;-67
2022/08/11 10:03:08;;;;;;;58.30;2.70;;;;;;;;;;5073654;28;20823;-67
2022/08/11 10:08:21;;;;;;;58.90;3.13;;;;;;;;;;5073762;28;20797;-67
2022/08/11 10:10:49;;;;;;;57.97;2.90;;;;;;;;;;5073415;28;20909;-67
2022/08/11 10:13:24;;;;;;;58.30;2.90;;;;;;;;;;5073670;28;20461;-67
2022/08/11 10:15:52;;;;;;;58.20;2.53;;;;;;;;;;5073880;28;20587;-68
2022/08/11 10:21:15;;;;;;;57.90;2.63;;;;;;;;;;5062679;28;20978;-68
2022/08/11 10:34:48;;;;;;;57.40;2.53;;;;;;;;;;5052008;28;20424;-66
2022/08/11 10:37:15;;;;;;;57.27;2.30;;;;;;;;;;5073132;28;20458;-65
2022/08/11 10:39:43;;;;;;;57.30;2.30;;;;;;;;;;5072876;28;20940;-65
2022/08/11 10:44:58;;;;;;;57.27;2.40;;;;;;;;;;5073064;28;20501;-68
2022/08/11 10:47:34;;;;;;;57.93;2.47;;;;;;;;;;5073022;28;20447;-68
2022/08/11 11:01:05;;;;;;;57.40;2.40;;;;;;;;;;5072816;28;20447;-65
2022/08/11 11:03:34;;;;;;;57.00;2.20;;;;;;;;;;5072579;28;20448;-65
2022/08/11 11:06:05;;;;;;;57.17;2.27;;;;;;;;;;5072857;28;20443;-66
2022/08/11 11:11:19;;;;;;;57.47;2.57;;;;;;;;;;5072593;28;20434;-66
2022/08/11 11:19:24;;;;;;;57.87;2.60;;;;;;;;;;5072004;28;20473;-66
2022/08/11 11:21:52;;;;;;;56.57;2.20;;;;;;;;;;5072140;28;20470;-66
2022/08/11 11:24:36;;;;;;;56.53;2.10;;;;;;;;;;5072107;28;20530;-66
2022/08/11 11:27:08;;;;;;;56.87;2.60;;;;;;;;;;5072426;28;20512;-66
2022/08/11 11:29:45;;;;;;;58.60;2.83;;;;;;;;;;5071910;28;20569;-66
2022/08/11 11:32:18;;;;;;;56.60;2.10;;;;;;;;;;5072254;28;20459;-68
2022/08/11 11:34:58;;;;;;;57.27;2.57;;;;;;;;;;5071648;28;20954;-66
2022/08/11 11:37:25;;;;;;;56.77;2.20;;;;;;;;;;5072275;28;20478;-66
2022/08/11 11:39:53;;;;;;;58.10;2.53;;;;;;;;;;5071900;28;20443;-66
2022/08/11 11:42:21;;;;;;;58.07;2.30;;;;;;;;;;5072114;28;20463;-66
2022/08/11 11:44:48;;;;;;;56.77;2.43;;;;;;;;;;5072053;28;20446;-66
2022/08/11 11:47:18;;;;;;;57.50;2.40;;;;;;;;;;5071906;28;20531;-66
2022/08/11 11:49:48;;;;;;;56.87;2.60;;;;;;;;;;5072067;28;20454;-66
2022/08/11 11:52:17;;;;;;;56.50;2.10;;;;;;;;;;5071789;28;20479;-66
2022/08/11 11:54:49;;;;;;;56.80;2.20;;;;;;;;;;5071873;28;20444;-66
2022/08/11 12:03:00;;;;;;;56.80;2.37;;;;;;;;;;5071889;28;20465;-66
2022/08/11 12:05:29;;;;;;;56.80;2.43;;;;;;;;;;5071867;28;20796;-66
2022/08/11 12:10:41;;;;;;;57.07;2.90;;;;;;;;;;5071168;28;20530;-66
2022/08/11 12:15:54;;;;;;;56.90;2.80;;;;;;;;;;5071637;28;20617;-66
2022/08/11 12:18:21;;;;;;;56.80;2.37;;;;;;;;;;5071651;28;20451;-66
2022/08/11 12:20:50;;;;;;;56.70;2.30;;;;;;;;;;5071243;28;20929;-66
2022/08/11 12:28:47;;;;;;;56.83;2.20;;;;;;;;;;5071296;28;20742;-66
2022/08/11 12:31:15;;;;;;;57.20;2.47;;;;;;;;;;5071352;28;20566;-66
2022/08/11 12:33:42;;;;;;;56.27;2.20;;;;;;;;;;5071830;28;20880;-66
2022/08/11 12:36:15;;;;;;;56.70;2.10;;;;;;;;;;5071360;28;20490;-66
2022/08/11 12:38:43;;;;;;;56.50;2.30;;;;;;;;;;5071337;28;20542;-66
2022/08/11 12:46:43;;;;;;;56.90;2.60;;;;;;;;;;5072580;28;20422;-65
2022/08/11 12:52:02;;;;;;;56.70;2.43;;;;;;;;;;5075020;28;20870;-66
2022/08/11 12:54:30;;;;;;;56.53;2.17;;;;;;;;;;5075484;28;20826;-66
2022/08/11 13:05:16;;;;;;;56.87;2.40;;;;;;;;;;5075064;28;20468;-66
2022/08/11 13:07:45;;;;;;;56.83;2.40;;;;;;;;;;5074885;28;20475;-67
2022/08/11 13:10:13;;;;;;;56.43;2.20;;;;;;;;;;5074400;28;20951;-67
2022/08/11 13:12:47;;;;;;;56.90;2.50;;;;;;;;;;5074569;28;20463;-67
2022/08/11 13:15:15;;;;;;;56.87;2.30;;;;;;;;;;5075048;28;20741;-67
2022/08/11 13:17:43;;;;;;;56.47;2.30;;;;;;;;;;5074848;28;20443;-67
2022/08/11 13:20:11;;;;;;;56.73;2.67;;;;;;;;;;5074321;28;20447;-67
2022/08/11 13:22:39;;;;;;;56.80;2.60;;;;;;;;;;5074635;28;20475;-67
2022/08/11 13:25:08;;;;;;;56.50;2.13;;;;;;;;;;5074586;28;20552;-67
2022/08/11 13:27:35;;;;;;;56.70;2.33;;;;;;;;;;5074544;28;20443;-67
2022/08/11 13:32:47;;;;;;;56.60;2.20;;;;;;;;;;5074597;28;20988;-67
2022/08/11 13:35:15;;;;;;;56.70;2.30;;;;;;;;;;5074479;28;20454;-67
2022/08/11 13:37:44;;;;;;;56.80;2.20;;;;;;;;;;5074429;28;21053;-67
2022/08/11 13:40:14;;;;;;;56.43;2.03;;;;;;;;;;5074065;28;20443;-67
2022/08/11 13:42:42;;;;;;;56.60;2.33;;;;;;;;;;5074310;28;20838;-67
2022/08/11 13:45:09;;;;;;;56.63;2.40;;;;;;;;;;5074244;28;20448;-67
2022/08/11 13:47:37;;;;;;;56.67;2.33;;;;;;;;;;5074177;28;20454;-67
2022/08/11 13:50:05;;;;;;;56.53;2.60;;;;;;;;;;5073744;28;20948;-67
2022/08/11 13:52:33;;;;;;;56.53;2.40;;;;;;;;;;5073930;28;20494;-67
2022/08/11 13:55:01;;;;;;;56.57;2.30;;;;;;;;;;5074263;28;20804;-67
2022/08/11 13:57:32;;;;;;;57.10;2.40;;;;;;;;;;5074160;28;20509;-67
2022/08/11 14:00:08;;;;;;;57.17;2.63;;;;;;;;;;5073130;28;20448;-67
2022/08/11 14:02:36;;;;;;;56.93;2.80;;;;;;;;;;5073806;28;20811;-67
2022/08/11 14:05:06;;;;;;;57.20;2.30;;;;;;;;;;5074029;28;20957;-67
2022/08/11 14:07:35;;;;;;;56.50;2.07;;;;;;;;;;5074047;28;20446;-67
2022/08/11 14:10:03;;;;;;;56.83;2.83;;;;;;;;;;5073693;28;20534;-67
2022/08/11 14:15:19;;;;;;;56.57;2.37;;;;;;;;;;5073721;28;20419;-67
2022/08/11 14:17:48;;;;;;;57.17;2.37;;;;;;;;;;5073803;28;20570;-67
2022/08/11 14:20:17;;;;;;;56.70;2.10;;;;;;;;;;5073236;28;20442;-67
2022/08/11 14:22:45;;;;;;;57.10;2.60;;;;;;;;;;5073487;28;20475;-67
2022/08/11 14:25:14;;;;;;;56.60;2.27;;;;;;;;;;5073593;28;20819;-67
2022/08/11 14:27:42;;;;;;;57.20;2.73;;;;;;;;;;5073420;28;20800;-67
2022/08/11 14:30:53;;;;;;;56.70;2.50;;;;;;;;;;5073075;28;20959;-67
2022/08/11 14:32:58;;;;;;;56.80;2.27;;;;;;;;;;5073091;28;20443;-67
2022/08/11 14:35:26;;;;;;;58.03;2.50;;;;;;;;;;5073402;28;20465;-67
2022/08/11 14:37:53;;;;;;;57.00;2.90;;;;;;;;;;5073299;28;20855;-67
2022/08/11 14:48:37;;;;;;;56.70;2.43;;;;;;;;;;5072736;28;20415;-67
2022/08/11 14:51:05;;;;;;;56.97;2.33;;;;;;;;;;5073022;28;20470;-67
2022/08/11 14:53:33;;;;;;;56.90;2.30;;;;;;;;;;5073104;28;20457;-67
2022/08/11 14:58:46;;;;;;;57.20;2.53;;;;;;;;;;5072682;28;20427;-67
2022/08/11 15:03:56;;;;;;;57.20;2.47;;;;;;;;;;5072384;28;20962;-67
2022/08/11 15:06:23;;;;;;;56.50;1.90;;;;;;;;;;5072790;28;20443;-67
2022/08/11 15:08:56;;;;;;;56.90;2.20;;;;;;;;;;5072388;28;20535;-67
2022/08/11 15:14:12;;;;;;;56.70;2.20;;;;;;;;;;5072680;28;20603;-67
2022/08/11 15:19:32;;;;;;;57.13;2.30;;;;;;;;;;5072167;28;20422;-67
2022/08/11 15:24:44;;;;;;;57.27;2.20;;;;;;;;;;5072447;28;20926;-67
2022/08/11 15:38:16;;;;;;;56.77;2.33;;;;;;;;;;5072142;28;20462;-67
2022/08/11 15:46:18;;;;;;;56.77;2.27;;;;;;;;;;5072109;28;20414;-67
2022/08/11 15:48:48;;;;;;;57.60;2.37;;;;;;;;;;5071723;28;20949;-67
2022/08/11 15:51:21;;;;;;;57.07;2.17;;;;;;;;;;5071835;28;20827;-67
2022/08/11 15:53:51;;;;;;;58.70;2.93;;;;;;;;;;5072203;28;20447;-67
2022/08/11 15:56:18;;;;;;;57.10;2.20;;;;;;;;;;5072275;28;20483;-67
2022/08/11 16:04:23;;;;;;;56.77;2.00;;;;;;;;;;5071904;28;20439;-67
2022/08/11 16:06:53;;;;;;;57.37;2.53;;;;;;;;;;5072284;28;20504;-67
2022/08/11 16:09:31;;;;;;;56.97;2.20;;;;;;;;;;5071679;28;20455;-67
2022/08/11 16:12:01;;;;;;;57.20;2.50;;;;;;;;;;5071668;28;20811;-67
2022/08/11 16:17:16;;;;;;;57.40;2.40;;;;;;;;;;5071779;28;20474;-67
2022/08/11 16:19:44;;;;;;;57.37;2.77;;;;;;;;;;5071520;28;20449;-67
2022/08/11 16:22:12;;;;;;;58.17;2.60;;;;;;;;;;5073551;28;21047;-67
2022/08/11 16:24:43;;;;;;;58.30;2.73;;;;;;;;;;5075776;28;20478;-67
2022/08/11 16:27:13;;;;;;;57.40;2.33;;;;;;;;;;5075710;28;20443;-67
2022/08/11 16:29:42;;;;;;;57.60;2.37;;;;;;;;;;5075403;28;20924;-67
2022/08/11 16:32:16;;;;;;;58.60;2.70;;;;;;;;;;5075704;28;20478;-67
2022/08/11 16:40:21;;;;;;;57.60;2.40;;;;;;;;;;5075179;28;20423;-67
2022/08/11 16:48:19;;;;;;;58.77;3.00;;;;;;;;;;5075263;28;20419;-67
2022/08/11 16:50:47;;;;;;;57.50;2.57;;;;;;;;;;5075117;28;20469;-67
2022/08/11 16:53:15;;;;;;;60.30;2.50;;;;;;;;;;5075180;28;20993;-67
2022/08/11 16:55:43;;;;;;;57.57;2.20;;;;;;;;;;5075117;28;20443;-67
2022/08/11 17:00:57;;;;;;;58.20;2.50;;;;;;;;;;5074908;28;20441;-67
2022/08/11 17:14:32;;;;;;;58.00;2.30;;;;;;;;;;5074801;28;20553;-66
2022/08/11 17:17:01;;;;;;;58.37;2.67;;;;;;;;;;5074909;28;20493;-66
2022/08/11 17:19:30;;;;;;;57.93;2.40;;;;;;;;;;5074407;28;20450;-66
2022/08/11 17:24:44;;;;;;;57.90;2.70;;;;;;;;;;5074702;28;20985;-67
2022/08/11 17:27:15;;;;;;;58.10;2.57;;;;;;;;;;5074551;28;20439;-67
2022/08/11 17:29:45;;;;;;;57.87;2.63;;;;;;;;;;5074461;28;20455;-67
2022/08/11 17:37:47;;;;;;;58.03;3.10;;;;;;;;;;5074421;28;20838;-67
2022/08/11 17:40:16;;;;;;;57.90;2.40;;;;;;;;;;5074263;28;20452;-67
2022/08/11 17:48:28;;;;;;;58.47;2.90;;;;;;;;;;5074112;28;20479;-67
2022/08/11 17:50:57;;;;;;;57.97;2.30;;;;;;;;;;5073999;28;20983;-67
2022/08/11 18:01:42;;;;;;;58.13;2.67;;;;;;;;;;5074043;28;20904;-67
2022/08/11 18:04:09;;;;;;;58.80;2.70;;;;;;;;;;5073943;28;20439;-67
2022/08/11 18:06:37;;;;;;;57.80;2.50;;;;;;;;;;5073823;28;20838;-67
